sensor_id;sensor_type;location;lat;lon;timestamp;pressure;altitude;pressure_sealevel;temperature
71807;BMP280;59655;42.590;23.364;2024-03-22T00:00:35;91447.13;;;6.88
71807;BMP280;59655;42.590;23.364;2024-03-22T00:03:01;91446.03;;;6.97
71807;BMP280;59655;42.590;23.364;2024-03-22T00:05:26;91445.81;;;6.95
71807;BMP280;59655;42.590;23.364;2024-03-22T00:07:51;91452.91;;;6.87
71807;BMP280;59655;42.590;23.364;2024-03-22T00:10:17;91439.53;;;6.72
71807;BMP280;59655;42.590;23.364;2024-03-22T00:12:42;91452.00;;;6.71
71807;BMP280;59655;42.590;23.364;2024-03-22T00:15:07;91438.31;;;6.59
71807;BMP280;59655;42.590;23.364;2024-03-22T00:17:33;91435.38;;;6.63
71807;BMP280;59655;42.590;23.364;2024-03-22T00:19:59;91443.19;;;6.55
71807;BMP280;59655;42.590;23.364;2024-03-22T00:22:25;91432.13;;;6.57
71807;BMP280;59655;42.590;23.364;2024-03-22T00:24:50;91440.75;;;6.57
71807;BMP280;59655;42.590;23.364;2024-03-22T00:27:15;91442.06;;;6.64
71807;BMP280;59655;42.590;23.364;2024-03-22T00:29:41;91438.03;;;6.63
71807;BMP280;59655;42.590;23.364;2024-03-22T00:32:06;91433.97;;;6.62
71807;BMP280;59655;42.590;23.364;2024-03-22T00:34:33;91444.28;;;6.60
71807;BMP280;59655;42.590;23.364;2024-03-22T00:36:59;91444.06;;;6.44
71807;BMP280;59655;42.590;23.364;2024-03-22T00:39:24;91434.69;;;6.49
71807;BMP280;59655;42.590;23.364;2024-03-22T00:41:49;91441.34;;;6.37
71807;BMP280;59655;42.590;23.364;2024-03-22T00:44:15;91452.41;;;6.35
71807;BMP280;59655;42.590;23.364;2024-03-22T00:46:40;91442.56;;;6.36
71807;BMP280;59655;42.590;23.364;2024-03-22T00:49:05;91443.97;;;6.37
71807;BMP280;59655;42.590;23.364;2024-03-22T00:51:31;91448.91;;;6.27
71807;BMP280;59655;42.590;23.364;2024-03-22T00:53:56;91446.06;;;6.25
71807;BMP280;59655;42.590;23.364;2024-03-22T00:56:22;91445.56;;;6.26
71807;BMP280;59655;42.590;23.364;2024-03-22T00:58:47;91443.16;;;6.28
71807;BMP280;59655;42.590;23.364;2024-03-22T01:01:13;91448.31;;;6.21
71807;BMP280;59655;42.590;23.364;2024-03-22T01:03:38;91434.72;;;6.17
71807;BMP280;59655;42.590;23.364;2024-03-22T01:06:04;91440.94;;;5.87
71807;BMP280;59655;42.590;23.364;2024-03-22T01:08:29;91438.22;;;5.93
71807;BMP280;59655;42.590;23.364;2024-03-22T01:10:54;91446.00;;;5.98
71807;BMP280;59655;42.590;23.364;2024-03-22T01:13:19;91438.34;;;6.00
71807;BMP280;59655;42.590;23.364;2024-03-22T01:15:46;91437.53;;;6.05
71807;BMP280;59655;42.590;23.364;2024-03-22T01:18:12;91436.91;;;5.99
71807;BMP280;59655;42.590;23.364;2024-03-22T01:20:37;91444.13;;;5.80
71807;BMP280;59655;42.590;23.364;2024-03-22T01:23:03;91438.88;;;5.80
71807;BMP280;59655;42.590;23.364;2024-03-22T01:25:29;91445.34;;;5.79
71807;BMP280;59655;42.590;23.364;2024-03-22T01:27:55;91441.91;;;5.84
71807;BMP280;59655;42.590;23.364;2024-03-22T01:30:21;91448.75;;;5.93
71807;BMP280;59655;42.590;23.364;2024-03-22T01:32:46;91443.41;;;6.12
71807;BMP280;59655;42.590;23.364;2024-03-22T01:35:12;91439.38;;;6.24
71807;BMP280;59655;42.590;23.364;2024-03-22T01:37:37;91433.50;;;6.31
71807;BMP280;59655;42.590;23.364;2024-03-22T01:40:03;91438.19;;;6.38
71807;BMP280;59655;42.590;23.364;2024-03-22T01:42:30;91434.47;;;6.34
71807;BMP280;59655;42.590;23.364;2024-03-22T01:44:55;91434.56;;;6.41
71807;BMP280;59655;42.590;23.364;2024-03-22T01:47:21;91428.47;;;6.46
71807;BMP280;59655;42.590;23.364;2024-03-22T01:49:47;91447.53;;;6.39
71807;BMP280;59655;42.590;23.364;2024-03-22T01:52:14;91440.63;;;6.36
71807;BMP280;59655;42.590;23.364;2024-03-22T01:54:40;91442.47;;;6.41
71807;BMP280;59655;42.590;23.364;2024-03-22T01:57:05;91436.25;;;6.39
71807;BMP280;59655;42.590;23.364;2024-03-22T01:59:32;91435.97;;;6.42
71807;BMP280;59655;42.590;23.364;2024-03-22T02:01:58;91433.25;;;6.48
71807;BMP280;59655;42.590;23.364;2024-03-22T02:04:24;91431.44;;;6.43
71807;BMP280;59655;42.590;23.364;2024-03-22T02:06:49;91425.22;;;6.40
71807;BMP280;59655;42.590;23.364;2024-03-22T02:09:15;91428.78;;;6.43
71807;BMP280;59655;42.590;23.364;2024-03-22T02:11:40;91432.63;;;6.42
71807;BMP280;59655;42.590;23.364;2024-03-22T02:14:06;91429.56;;;6.38
71807;BMP280;59655;42.590;23.364;2024-03-22T02:16:31;91426.06;;;6.35
71807;BMP280;59655;42.590;23.364;2024-03-22T02:18:56;91431.50;;;6.37
71807;BMP280;59655;42.590;23.364;2024-03-22T02:21:22;91422.91;;;6.50
71807;BMP280;59655;42.590;23.364;2024-03-22T02:23:47;91433.75;;;6.46
71807;BMP280;59655;42.590;23.364;2024-03-22T02:26:12;91430.19;;;6.44
71807;BMP280;59655;42.590;23.364;2024-03-22T02:28:38;91432.34;;;6.45
71807;BMP280;59655;42.590;23.364;2024-03-22T02:31:03;91441.66;;;6.60
71807;BMP280;59655;42.590;23.364;2024-03-22T02:33:29;91442.47;;;6.55
71807;BMP280;59655;42.590;23.364;2024-03-22T02:35:55;91435.75;;;6.54
71807;BMP280;59655;42.590;23.364;2024-03-22T02:38:21;91436.38;;;6.46
71807;BMP280;59655;42.590;23.364;2024-03-22T02:40:48;91435.19;;;6.47
71807;BMP280;59655;42.590;23.364;2024-03-22T02:43:13;91444.50;;;6.48
71807;BMP280;59655;42.590;23.364;2024-03-22T02:45:39;91443.66;;;6.54
71807;BMP280;59655;42.590;23.364;2024-03-22T02:48:06;91439.94;;;6.49
71807;BMP280;59655;42.590;23.364;2024-03-22T02:50:35;91440.03;;;6.43
71807;BMP280;59655;42.590;23.364;2024-03-22T02:53:00;91440.53;;;6.42
71807;BMP280;59655;42.590;23.364;2024-03-22T02:55:26;91445.72;;;6.47
71807;BMP280;59655;42.590;23.364;2024-03-22T02:57:51;91440.75;;;6.44
71807;BMP280;59655;42.590;23.364;2024-03-22T03:00:17;91456.47;;;6.49
71807;BMP280;59655;42.590;23.364;2024-03-22T03:02:43;91452.72;;;6.45
71807;BMP280;59655;42.590;23.364;2024-03-22T03:05:08;91454.63;;;6.44
71807;BMP280;59655;42.590;23.364;2024-03-22T03:07:35;91458.19;;;6.47
71807;BMP280;59655;42.590;23.364;2024-03-22T03:10:00;91460.81;;;6.47
71807;BMP280;59655;42.590;23.364;2024-03-22T03:12:25;91464.25;;;6.42
71807;BMP280;59655;42.590;23.364;2024-03-22T03:14:51;91465.16;;;6.44
71807;BMP280;59655;42.590;23.364;2024-03-22T03:17:16;91457.03;;;6.42
71807;BMP280;59655;42.590;23.364;2024-03-22T03:19:41;91459.06;;;6.36
71807;BMP280;59655;42.590;23.364;2024-03-22T03:22:07;91463.75;;;6.43
71807;BMP280;59655;42.590;23.364;2024-03-22T03:24:32;91460.91;;;6.55
71807;BMP280;59655;42.590;23.364;2024-03-22T03:26:57;91467.09;;;6.44
71807;BMP280;59655;42.590;23.364;2024-03-22T03:29:23;91461.19;;;6.38
71807;BMP280;59655;42.590;23.364;2024-03-22T03:31:48;91463.94;;;6.32
71807;BMP280;59655;42.590;23.364;2024-03-22T03:34:14;91467.16;;;6.38
71807;BMP280;59655;42.590;23.364;2024-03-22T03:36:40;91469.78;;;6.38
71807;BMP280;59655;42.590;23.364;2024-03-22T03:39:05;91475.06;;;6.38
71807;BMP280;59655;42.590;23.364;2024-03-22T03:41:30;91467.47;;;6.35
71807;BMP280;59655;42.590;23.364;2024-03-22T03:43:56;91474.34;;;6.24
71807;BMP280;59655;42.590;23.364;2024-03-22T03:46:21;91466.16;;;6.28
71807;BMP280;59655;42.590;23.364;2024-03-22T03:48:46;91468.38;;;6.24
71807;BMP280;59655;42.590;23.364;2024-03-22T03:51:12;91474.16;;;6.22
71807;BMP280;59655;42.590;23.364;2024-03-22T03:53:37;91481.19;;;6.33
71807;BMP280;59655;42.590;23.364;2024-03-22T03:56:03;91473.88;;;6.39
71807;BMP280;59655;42.590;23.364;2024-03-22T03:58:28;91476.91;;;6.43
71807;BMP280;59655;42.590;23.364;2024-03-22T04:00:53;91478.66;;;6.41
71807;BMP280;59655;42.590;23.364;2024-03-22T04:03:19;91480.44;;;6.33
71807;BMP280;59655;42.590;23.364;2024-03-22T04:05:44;91485.22;;;6.34
71807;BMP280;59655;42.590;23.364;2024-03-22T04:08:09;91493.38;;;6.17
71807;BMP280;59655;42.590;23.364;2024-03-22T04:10:35;91491.00;;;6.00
71807;BMP280;59655;42.590;23.364;2024-03-22T04:13:00;91494.22;;;5.74
71807;BMP280;59655;42.590;23.364;2024-03-22T04:15:25;91495.19;;;5.58
71807;BMP280;59655;42.590;23.364;2024-03-22T04:17:51;91498.34;;;5.51
71807;BMP280;59655;42.590;23.364;2024-03-22T04:20:16;91499.34;;;5.48
71807;BMP280;59655;42.590;23.364;2024-03-22T04:22:41;91502.25;;;5.44
71807;BMP280;59655;42.590;23.364;2024-03-22T04:25:07;91497.66;;;5.50
71807;BMP280;59655;42.590;23.364;2024-03-22T04:27:36;91499.28;;;5.72
71807;BMP280;59655;42.590;23.364;2024-03-22T04:30:02;91500.25;;;5.69
71807;BMP280;59655;42.590;23.364;2024-03-22T04:32:27;91505.41;;;5.61
71807;BMP280;59655;42.590;23.364;2024-03-22T04:34:52;91498.84;;;5.68
71807;BMP280;59655;42.590;23.364;2024-03-22T04:37:20;91504.47;;;5.78
71807;BMP280;59655;42.590;23.364;2024-03-22T04:39:45;91510.03;;;5.74
71807;BMP280;59655;42.590;23.364;2024-03-22T04:42:11;91508.44;;;5.65
71807;BMP280;59655;42.590;23.364;2024-03-22T04:44:36;91520.75;;;5.57
71807;BMP280;59655;42.590;23.364;2024-03-22T04:47:01;91515.06;;;5.53
71807;BMP280;59655;42.590;23.364;2024-03-22T04:49:27;91518.34;;;5.59
71807;BMP280;59655;42.590;23.364;2024-03-22T04:51:52;91528.78;;;5.46
71807;BMP280;59655;42.590;23.364;2024-03-22T04:54:17;91525.00;;;5.41
71807;BMP280;59655;42.590;23.364;2024-03-22T04:56:43;91525.44;;;5.45
71807;BMP280;59655;42.590;23.364;2024-03-22T04:59:08;91520.59;;;5.31
71807;BMP280;59655;42.590;23.364;2024-03-22T05:01:33;91529.75;;;5.24
71807;BMP280;59655;42.590;23.364;2024-03-22T05:03:59;91530.47;;;5.24
71807;BMP280;59655;42.590;23.364;2024-03-22T05:06:24;91526.78;;;5.33
71807;BMP280;59655;42.590;23.364;2024-03-22T05:08:49;91525.16;;;5.30
71807;BMP280;59655;42.590;23.364;2024-03-22T05:11:15;91530.69;;;5.27
71807;BMP280;59655;42.590;23.364;2024-03-22T05:13:40;91527.59;;;5.47
71807;BMP280;59655;42.590;23.364;2024-03-22T05:16:07;91530.41;;;5.49
71807;BMP280;59655;42.590;23.364;2024-03-22T05:18:32;91533.00;;;5.55
71807;BMP280;59655;42.590;23.364;2024-03-22T05:20:57;91532.44;;;5.62
71807;BMP280;59655;42.590;23.364;2024-03-22T05:23:23;91532.84;;;5.66
71807;BMP280;59655;42.590;23.364;2024-03-22T05:25:48;91534.41;;;5.75
71807;BMP280;59655;42.590;23.364;2024-03-22T05:28:13;91539.91;;;5.77
71807;BMP280;59655;42.590;23.364;2024-03-22T05:30:39;91539.53;;;5.86
71807;BMP280;59655;42.590;23.364;2024-03-22T05:33:04;91542.81;;;5.92
71807;BMP280;59655;42.590;23.364;2024-03-22T05:35:29;91540.31;;;6.00
71807;BMP280;59655;42.590;23.364;2024-03-22T05:37:56;91540.25;;;6.05
71807;BMP280;59655;42.590;23.364;2024-03-22T05:40:21;91548.03;;;6.11
71807;BMP280;59655;42.590;23.364;2024-03-22T05:42:47;91543.94;;;6.16
71807;BMP280;59655;42.590;23.364;2024-03-22T05:45:12;91544.84;;;6.18
71807;BMP280;59655;42.590;23.364;2024-03-22T05:47:37;91557.53;;;6.20
71807;BMP280;59655;42.590;23.364;2024-03-22T05:50:03;91552.88;;;6.26
71807;BMP280;59655;42.590;23.364;2024-03-22T05:52:32;91554.72;;;6.31
71807;BMP280;59655;42.590;23.364;2024-03-22T05:54:58;91557.06;;;6.35
71807;BMP280;59655;42.590;23.364;2024-03-22T05:57:23;91552.00;;;6.37
71807;BMP280;59655;42.590;23.364;2024-03-22T05:59:48;91562.97;;;6.41
71807;BMP280;59655;42.590;23.364;2024-03-22T06:02:14;91554.03;;;6.44
71807;BMP280;59655;42.590;23.364;2024-03-22T06:04:40;91560.97;;;6.47
71807;BMP280;59655;42.590;23.364;2024-03-22T06:07:06;91563.31;;;6.51
71807;BMP280;59655;42.590;23.364;2024-03-22T06:09:31;91560.56;;;6.56
71807;BMP280;59655;42.590;23.364;2024-03-22T06:12:05;91563.00;;;6.67
71807;BMP280;59655;42.590;23.364;2024-03-22T06:14:31;91555.53;;;6.72
71807;BMP280;59655;42.590;23.364;2024-03-22T06:16:56;91562.13;;;6.78
71807;BMP280;59655;42.590;23.364;2024-03-22T06:19:22;91557.06;;;6.80
71807;BMP280;59655;42.590;23.364;2024-03-22T06:21:48;91570.44;;;6.82
71807;BMP280;59655;42.590;23.364;2024-03-22T06:24:14;91568.53;;;6.83
71807;BMP280;59655;42.590;23.364;2024-03-22T06:26:39;91565.09;;;6.88
71807;BMP280;59655;42.590;23.364;2024-03-22T06:29:04;91564.59;;;6.89
71807;BMP280;59655;42.590;23.364;2024-03-22T06:31:30;91568.81;;;6.93
71807;BMP280;59655;42.590;23.364;2024-03-22T06:33:56;91563.25;;;6.96
71807;BMP280;59655;42.590;23.364;2024-03-22T06:36:27;91566.59;;;6.97
71807;BMP280;59655;42.590;23.364;2024-03-22T06:38:52;91571.09;;;7.02
71807;BMP280;59655;42.590;23.364;2024-03-22T06:41:18;91572.72;;;7.05
71807;BMP280;59655;42.590;23.364;2024-03-22T06:43:43;91570.06;;;7.05
71807;BMP280;59655;42.590;23.364;2024-03-22T06:46:08;91571.00;;;7.07
71807;BMP280;59655;42.590;23.364;2024-03-22T06:48:34;91572.91;;;7.07
71807;BMP280;59655;42.590;23.364;2024-03-22T06:50:59;91580.25;;;7.14
71807;BMP280;59655;42.590;23.364;2024-03-22T06:53:24;91588.56;;;7.18
71807;BMP280;59655;42.590;23.364;2024-03-22T06:55:50;91589.47;;;7.21
71807;BMP280;59655;42.590;23.364;2024-03-22T06:58:15;91587.31;;;7.19
71807;BMP280;59655;42.590;23.364;2024-03-22T07:00:41;91593.84;;;7.18
71807;BMP280;59655;42.590;23.364;2024-03-22T07:03:06;91598.50;;;7.25
71807;BMP280;59655;42.590;23.364;2024-03-22T07:05:32;91594.44;;;7.24
71807;BMP280;59655;42.590;23.364;2024-03-22T07:07:57;91592.91;;;7.29
71807;BMP280;59655;42.590;23.364;2024-03-22T07:10:23;91601.53;;;7.29
71807;BMP280;59655;42.590;23.364;2024-03-22T07:12:55;91597.19;;;7.32
71807;BMP280;59655;42.590;23.364;2024-03-22T07:15:24;91610.38;;;7.32
71807;BMP280;59655;42.590;23.364;2024-03-22T07:17:50;91603.56;;;7.37
71807;BMP280;59655;42.590;23.364;2024-03-22T07:20:16;91605.00;;;7.38
71807;BMP280;59655;42.590;23.364;2024-03-22T07:22:42;91606.41;;;7.39
71807;BMP280;59655;42.590;23.364;2024-03-22T07:25:08;91600.63;;;7.40
71807;BMP280;59655;42.590;23.364;2024-03-22T07:27:35;91609.44;;;7.43
71807;BMP280;59655;42.590;23.364;2024-03-22T07:30:01;91607.00;;;7.45
71807;BMP280;59655;42.590;23.364;2024-03-22T07:32:26;91606.00;;;7.48
71807;BMP280;59655;42.590;23.364;2024-03-22T07:34:51;91605.19;;;7.53
71807;BMP280;59655;42.590;23.364;2024-03-22T07:37:17;91605.41;;;7.55
71807;BMP280;59655;42.590;23.364;2024-03-22T07:39:42;91608.75;;;7.56
71807;BMP280;59655;42.590;23.364;2024-03-22T07:42:07;91605.91;;;7.53
71807;BMP280;59655;42.590;23.364;2024-03-22T07:44:33;91603.97;;;7.54
71807;BMP280;59655;42.590;23.364;2024-03-22T07:46:58;91621.66;;;7.59
71807;BMP280;59655;42.590;23.364;2024-03-22T07:49:24;91613.53;;;7.57
71807;BMP280;59655;42.590;23.364;2024-03-22T07:51:49;91617.78;;;7.60
71807;BMP280;59655;42.590;23.364;2024-03-22T07:54:15;91610.78;;;7.63
71807;BMP280;59655;42.590;23.364;2024-03-22T07:56:40;91611.47;;;7.63
71807;BMP280;59655;42.590;23.364;2024-03-22T07:59:05;91616.97;;;7.65
71807;BMP280;59655;42.590;23.364;2024-03-22T08:01:31;91612.91;;;7.64
71807;BMP280;59655;42.590;23.364;2024-03-22T08:03:56;91615.53;;;7.64
71807;BMP280;59655;42.590;23.364;2024-03-22T08:06:21;91617.16;;;7.67
71807;BMP280;59655;42.590;23.364;2024-03-22T08:08:47;91613.50;;;7.70
71807;BMP280;59655;42.590;23.364;2024-03-22T08:11:12;91625.69;;;7.73
71807;BMP280;59655;42.590;23.364;2024-03-22T08:13:38;91619.38;;;7.77
71807;BMP280;59655;42.590;23.364;2024-03-22T08:16:04;91622.22;;;7.79
71807;BMP280;59655;42.590;23.364;2024-03-22T08:18:29;91620.78;;;7.78
71807;BMP280;59655;42.590;23.364;2024-03-22T08:20:54;91617.84;;;7.81
71807;BMP280;59655;42.590;23.364;2024-03-22T08:23:20;91613.41;;;7.76
71807;BMP280;59655;42.590;23.364;2024-03-22T08:25:48;91612.50;;;7.73
71807;BMP280;59655;42.590;23.364;2024-03-22T08:28:13;91612.38;;;7.79
71807;BMP280;59655;42.590;23.364;2024-03-22T08:30:39;91615.75;;;7.80
71807;BMP280;59655;42.590;23.364;2024-03-22T08:33:04;91611.56;;;7.84
71807;BMP280;59655;42.590;23.364;2024-03-22T08:35:30;91618.66;;;7.89
71807;BMP280;59655;42.590;23.364;2024-03-22T08:37:56;91611.66;;;7.92
71807;BMP280;59655;42.590;23.364;2024-03-22T08:40:21;91617.13;;;7.94
71807;BMP280;59655;42.590;23.364;2024-03-22T08:42:48;91617.63;;;7.92
71807;BMP280;59655;42.590;23.364;2024-03-22T08:45:13;91615.81;;;7.87
71807;BMP280;59655;42.590;23.364;2024-03-22T08:47:39;91618.88;;;7.91
71807;BMP280;59655;42.590;23.364;2024-03-22T08:50:06;91617.13;;;7.94
71807;BMP280;59655;42.590;23.364;2024-03-22T08:52:31;91620.16;;;7.98
71807;BMP280;59655;42.590;23.364;2024-03-22T08:54:57;91615.06;;;8.00
71807;BMP280;59655;42.590;23.364;2024-03-22T08:57:22;91624.84;;;8.05
71807;BMP280;59655;42.590;23.364;2024-03-22T08:59:48;91616.91;;;8.05
71807;BMP280;59655;42.590;23.364;2024-03-22T09:02:13;91617.81;;;8.08
71807;BMP280;59655;42.590;23.364;2024-03-22T09:04:39;91610.25;;;8.12
71807;BMP280;59655;42.590;23.364;2024-03-22T09:07:05;91619.53;;;8.19
71807;BMP280;59655;42.590;23.364;2024-03-22T09:09:30;91618.47;;;8.22
71807;BMP280;59655;42.590;23.364;2024-03-22T09:11:55;91617.66;;;8.27
71807;BMP280;59655;42.590;23.364;2024-03-22T09:14:21;91618.88;;;8.26
71807;BMP280;59655;42.590;23.364;2024-03-22T09:16:46;91617.16;;;8.28
71807;BMP280;59655;42.590;23.364;2024-03-22T09:19:12;91609.03;;;8.26
71807;BMP280;59655;42.590;23.364;2024-03-22T09:21:37;91608.69;;;8.30
71807;BMP280;59655;42.590;23.364;2024-03-22T09:24:02;91604.50;;;8.34
71807;BMP280;59655;42.590;23.364;2024-03-22T09:26:32;91616.72;;;8.37
71807;BMP280;59655;42.590;23.364;2024-03-22T09:28:57;91613.00;;;8.41
71807;BMP280;59655;42.590;23.364;2024-03-22T09:31:22;91605.97;;;8.43
71807;BMP280;59655;42.590;23.364;2024-03-22T09:33:48;91601.31;;;8.49
71807;BMP280;59655;42.590;23.364;2024-03-22T09:36:13;91598.09;;;8.51
71807;BMP280;59655;42.590;23.364;2024-03-22T09:38:39;91603.41;;;8.51
71807;BMP280;59655;42.590;23.364;2024-03-22T09:41:04;91601.38;;;8.57
71807;BMP280;59655;42.590;23.364;2024-03-22T09:43:30;91604.00;;;8.57
71807;BMP280;59655;42.590;23.364;2024-03-22T09:45:57;91600.50;;;8.62
71807;BMP280;59655;42.590;23.364;2024-03-22T09:48:23;91604.47;;;8.69
71807;BMP280;59655;42.590;23.364;2024-03-22T09:50:49;91600.06;;;8.71
71807;BMP280;59655;42.590;23.364;2024-03-22T09:53:19;91593.53;;;8.72
71807;BMP280;59655;42.590;23.364;2024-03-22T09:55:48;91598.09;;;8.72
71807;BMP280;59655;42.590;23.364;2024-03-22T09:58:14;91600.59;;;8.70
71807;BMP280;59655;42.590;23.364;2024-03-22T10:00:42;91601.38;;;8.78
71807;BMP280;59655;42.590;23.364;2024-03-22T10:03:07;91593.25;;;8.84
71807;BMP280;59655;42.590;23.364;2024-03-22T10:05:33;91598.25;;;8.87
71807;BMP280;59655;42.590;23.364;2024-03-22T10:07:58;91595.09;;;8.89
71807;BMP280;59655;42.590;23.364;2024-03-22T10:10:24;91587.69;;;8.95
71807;BMP280;59655;42.590;23.364;2024-03-22T10:12:50;91591.28;;;8.97
71807;BMP280;59655;42.590;23.364;2024-03-22T10:15:18;91599.41;;;8.99
71807;BMP280;59655;42.590;23.364;2024-03-22T10:17:43;91589.69;;;9.02
71807;BMP280;59655;42.590;23.364;2024-03-22T10:20:12;91590.78;;;9.07
71807;BMP280;59655;42.590;23.364;2024-03-22T10:22:42;91585.91;;;9.11
71807;BMP280;59655;42.590;23.364;2024-03-22T10:25:08;91591.31;;;9.05
71807;BMP280;59655;42.590;23.364;2024-03-22T10:27:33;91589.22;;;9.11
71807;BMP280;59655;42.590;23.364;2024-03-22T10:29:59;91585.22;;;9.18
71807;BMP280;59655;42.590;23.364;2024-03-22T10:32:24;91579.06;;;9.23
71807;BMP280;59655;42.590;23.364;2024-03-22T10:34:50;91574.00;;;9.33
71807;BMP280;59655;42.590;23.364;2024-03-22T10:37:16;91575.97;;;9.40
71807;BMP280;59655;42.590;23.364;2024-03-22T10:39:43;91578.28;;;9.43
71807;BMP280;59655;42.590;23.364;2024-03-22T10:42:10;91588.00;;;9.49
71807;BMP280;59655;42.590;23.364;2024-03-22T10:44:36;91576.91;;;9.50
71807;BMP280;59655;42.590;23.364;2024-03-22T10:47:04;91579.22;;;9.54
71807;BMP280;59655;42.590;23.364;2024-03-22T10:49:30;91564.34;;;9.51
71807;BMP280;59655;42.590;23.364;2024-03-22T10:51:59;91574.94;;;9.51
71807;BMP280;59655;42.590;23.364;2024-03-22T10:54:37;91565.47;;;9.55
71807;BMP280;59655;42.590;23.364;2024-03-22T10:57:05;91560.19;;;9.63
71807;BMP280;59655;42.590;23.364;2024-03-22T10:59:35;91572.94;;;9.80
71807;BMP280;59655;42.590;23.364;2024-03-22T11:02:03;91557.78;;;9.80
71807;BMP280;59655;42.590;23.364;2024-03-22T11:04:30;91558.50;;;9.88
71807;BMP280;59655;42.590;23.364;2024-03-22T11:06:57;91551.94;;;9.89
71807;BMP280;59655;42.590;23.364;2024-03-22T11:09:26;91555.00;;;9.94
71807;BMP280;59655;42.590;23.364;2024-03-22T11:11:53;91552.69;;;9.90
71807;BMP280;59655;42.590;23.364;2024-03-22T11:14:19;91549.84;;;9.88
71807;BMP280;59655;42.590;23.364;2024-03-22T11:16:49;91552.50;;;9.88
71807;BMP280;59655;42.590;23.364;2024-03-22T11:19:16;91546.44;;;9.72
71807;BMP280;59655;42.590;23.364;2024-03-22T11:21:42;91543.09;;;9.79
71807;BMP280;59655;42.590;23.364;2024-03-22T11:24:07;91544.00;;;9.89
71807;BMP280;59655;42.590;23.364;2024-03-22T11:26:33;91546.66;;;9.97
71807;BMP280;59655;42.590;23.364;2024-03-22T11:28:59;91541.75;;;10.01
71807;BMP280;59655;42.590;23.364;2024-03-22T11:31:26;91539.13;;;10.09
71807;BMP280;59655;42.590;23.364;2024-03-22T11:33:54;91539.13;;;10.09
71807;BMP280;59655;42.590;23.364;2024-03-22T11:36:20;91535.03;;;10.08
71807;BMP280;59655;42.590;23.364;2024-03-22T11:38:46;91541.94;;;10.19
71807;BMP280;59655;42.590;23.364;2024-03-22T11:41:18;91535.91;;;10.18
71807;BMP280;59655;42.590;23.364;2024-03-22T11:43:46;91528.50;;;10.17
71807;BMP280;59655;42.590;23.364;2024-03-22T11:46:14;91528.31;;;10.22
71807;BMP280;59655;42.590;23.364;2024-03-22T11:48:40;91526.56;;;10.17
71807;BMP280;59655;42.590;23.364;2024-03-22T11:51:09;91518.59;;;10.09
71807;BMP280;59655;42.590;23.364;2024-03-22T11:53:35;91525.47;;;10.13
71807;BMP280;59655;42.590;23.364;2024-03-22T11:56:04;91521.06;;;10.15
71807;BMP280;59655;42.590;23.364;2024-03-22T11:58:29;91523.41;;;10.19
71807;BMP280;59655;42.590;23.364;2024-03-22T12:00:58;91515.78;;;10.15
71807;BMP280;59655;42.590;23.364;2024-03-22T12:03:23;91515.03;;;10.15
71807;BMP280;59655;42.590;23.364;2024-03-22T12:05:49;91508.69;;;10.10
71807;BMP280;59655;42.590;23.364;2024-03-22T12:08:20;91506.91;;;10.20
71807;BMP280;59655;42.590;23.364;2024-03-22T12:10:45;91502.53;;;10.23
71807;BMP280;59655;42.590;23.364;2024-03-22T12:13:11;91502.19;;;10.26
71807;BMP280;59655;42.590;23.364;2024-03-22T12:15:36;91498.44;;;10.29
71807;BMP280;59655;42.590;23.364;2024-03-22T12:18:02;91499.88;;;10.38
71807;BMP280;59655;42.590;23.364;2024-03-22T12:20:28;91489.63;;;10.42
71807;BMP280;59655;42.590;23.364;2024-03-22T12:22:53;91490.31;;;10.43
71807;BMP280;59655;42.590;23.364;2024-03-22T12:25:18;91481.47;;;10.40
71807;BMP280;59655;42.590;23.364;2024-03-22T12:27:46;91482.53;;;10.52
71807;BMP280;59655;42.590;23.364;2024-03-22T12:30:12;91482.16;;;10.56
71807;BMP280;59655;42.590;23.364;2024-03-22T12:32:37;91472.22;;;10.72
71807;BMP280;59655;42.590;23.364;2024-03-22T12:35:03;91470.81;;;10.86
71807;BMP280;59655;42.590;23.364;2024-03-22T12:37:28;91476.59;;;11.00
71807;BMP280;59655;42.590;23.364;2024-03-22T12:39:53;91471.88;;;11.24
71807;BMP280;59655;42.590;23.364;2024-03-22T12:42:20;91477.41;;;11.18
71807;BMP280;59655;42.590;23.364;2024-03-22T12:44:45;91473.69;;;11.13
71807;BMP280;59655;42.590;23.364;2024-03-22T12:47:11;91476.25;;;11.36
71807;BMP280;59655;42.590;23.364;2024-03-22T12:49:36;91479.28;;;11.66
71807;BMP280;59655;42.590;23.364;2024-03-22T12:52:01;91477.72;;;11.62
71807;BMP280;59655;42.590;23.364;2024-03-22T12:54:27;91471.34;;;11.91
71807;BMP280;59655;42.590;23.364;2024-03-22T12:56:52;91480.84;;;12.61
71807;BMP280;59655;42.590;23.364;2024-03-22T12:59:17;91479.31;;;13.74
71807;BMP280;59655;42.590;23.364;2024-03-22T13:01:43;91471.00;;;15.43
71807;BMP280;59655;42.590;23.364;2024-03-22T13:04:09;91470.19;;;17.45
71807;BMP280;59655;42.590;23.364;2024-03-22T13:06:34;91467.47;;;19.16
71807;BMP280;59655;42.590;23.364;2024-03-22T13:09:00;91469.41;;;19.96
71807;BMP280;59655;42.590;23.364;2024-03-22T13:11:25;91470.34;;;21.03
71807;BMP280;59655;42.590;23.364;2024-03-22T13:13:52;91462.63;;;21.93
71807;BMP280;59655;42.590;23.364;2024-03-22T13:16:17;91463.13;;;22.23
71807;BMP280;59655;42.590;23.364;2024-03-22T13:18:43;91470.22;;;23.41
71807;BMP280;59655;42.590;23.364;2024-03-22T13:21:09;91475.16;;;23.67
71807;BMP280;59655;42.590;23.364;2024-03-22T13:23:37;91464.78;;;24.23
71807;BMP280;59655;42.590;23.364;2024-03-22T13:26:06;91460.72;;;24.46
71807;BMP280;59655;42.590;23.364;2024-03-22T13:28:32;91470.00;;;24.83
71807;BMP280;59655;42.590;23.364;2024-03-22T13:31:04;91469.03;;;24.74
71807;BMP280;59655;42.590;23.364;2024-03-22T13:33:31;91465.53;;;25.17
71807;BMP280;59655;42.590;23.364;2024-03-22T13:35:57;91460.53;;;25.34
71807;BMP280;59655;42.590;23.364;2024-03-22T13:38:22;91455.81;;;25.10
71807;BMP280;59655;42.590;23.364;2024-03-22T13:40:57;91453.44;;;24.51
71807;BMP280;59655;42.590;23.364;2024-03-22T13:43:23;91445.84;;;24.03
71807;BMP280;59655;42.590;23.364;2024-03-22T13:45:51;91454.25;;;23.30
71807;BMP280;59655;42.590;23.364;2024-03-22T13:48:21;91441.75;;;22.47
71807;BMP280;59655;42.590;23.364;2024-03-22T13:50:54;91435.00;;;21.94
71807;BMP280;59655;42.590;23.364;2024-03-22T13:53:20;91443.53;;;21.08
71807;BMP280;59655;42.590;23.364;2024-03-22T13:55:49;91431.31;;;20.45
71807;BMP280;59655;42.590;23.364;2024-03-22T13:58:15;91431.13;;;19.70